Time;durP1;ratioP1;P1;durP2;ratioP2;P2;SDS_P1;SDS_P2;PMS_P1;PMS_P2;Temp;Humidity;BMP_temperature;BMP_pressure;BME280_temperature;BME280_humidity;BME280_pressure;Samples;Min_cycle;Max_cycle;Signal;HPM_P1;HPM_P2
2022/01/10 00:00:19;;;;;;;15.43;7.67;;;5.40;76.70;;;;;;5088727;28;20115;-61
2022/01/10 00:02:48;;;;;;;15.30;6.73;;;5.40;76.70;;;;;;5083767;28;20046;-61
2022/01/10 00:05:14;;;;;;;16.10;7.80;;;5.40;76.70;;;;;;5089517;28;20023;-60
2022/01/10 00:07:41;;;;;;;12.97;6.97;;;5.40;76.70;;;;;;5079408;28;20028;-60
2022/01/10 00:10:08;;;;;;;17.20;7.27;;;5.40;76.80;;;;;;5092528;28;20127;-60
2022/01/10 00:12:33;;;;;;;17.57;7.00;;;5.40;76.80;;;;;;5083198;28;20031;-61
2022/01/10 00:14:59;;;;;;;16.43;7.20;;;5.40;76.80;;;;;;5093490;28;20031;-60
2022/01/10 00:17:24;;;;;;;19.40;7.60;;;5.40;76.80;;;;;;5092345;28;20479;-60
2022/01/10 00:19:50;;;;;;;15.77;7.20;;;5.40;76.80;;;;;;5093522;28;20085;-61
2022/01/10 00:22:16;;;;;;;16.20;7.20;;;5.40;76.80;;;;;;5093686;28;20036;-61
2022/01/10 00:24:41;;;;;;;19.17;7.77;;;5.30;76.70;;;;;;5094607;28;20028;-61
2022/01/10 00:27:07;;;;;;;15.90;7.53;;;5.30;77.30;;;;;;5092905;28;20078;-61
2022/01/10 00:29:33;;;;;;;15.23;6.80;;;5.30;76.70;;;;;;5092353;28;20113;-62
2022/01/10 00:31:59;;;;;;;19.23;7.53;;;5.30;76.70;;;;;;5097597;28;20020;-61
2022/01/10 00:34:26;;;;;;;14.07;7.20;;;5.20;76.60;;;;;;5094731;28;20460;-61
2022/01/10 00:36:52;;;;;;;18.50;7.97;;;5.20;76.60;;;;;;5093986;28;20066;-61
2022/01/10 00:39:18;;;;;;;17.70;7.70;;;5.20;77.30;;;;;;5092938;28;20374;-61
2022/01/10 00:41:45;;;;;;;19.30;8.13;;;5.20;76.70;;;;;;5093369;28;20144;-61
2022/01/10 00:44:11;;;;;;;14.27;7.63;;;5.20;76.60;;;;;;5093850;28;20067;-61
2022/01/10 00:46:37;;;;;;;16.20;8.30;;;5.20;76.70;;;;;;5093198;28;20074;-61
2022/01/10 00:49:04;;;;;;;12.23;6.80;;;5.20;76.60;;;;;;5093119;28;20102;-61
2022/01/10 00:51:30;;;;;;;18.37;7.70;;;5.20;76.60;;;;;;5093097;28;20091;-61
2022/01/10 00:53:55;;;;;;;14.77;7.33;;;5.20;76.60;;;;;;5093002;28;20452;-61
2022/01/10 00:56:21;;;;;;;20.17;8.53;;;5.20;76.60;;;;;;5088058;28;20416;-62
2022/01/10 00:58:47;;;;;;;18.93;8.43;;;5.20;76.60;;;;;;5086210;28;20016;-61
2022/01/10 01:01:14;;;;;;;14.63;7.60;;;5.20;76.70;;;;;;5075757;28;20054;-61
2022/01/10 01:03:40;;;;;;;20.80;8.30;;;5.20;76.70;;;;;;5098607;28;20016;-61
2022/01/10 01:06:06;;;;;;;18.43;8.60;;;5.20;76.70;;;;;;5092365;28;20028;-61
2022/01/10 01:08:33;;;;;;;14.03;7.63;;;5.20;76.70;;;;;;5092452;28;20024;-62
2022/01/10 01:11:22;;;;;;;15.83;8.13;;;5.20;76.70;;;;;;5112699;28;20028;-61
2022/01/10 01:13:55;;;;;;;21.37;8.97;;;5.20;76.70;;;;;;5096507;28;20024;-61
2022/01/10 01:19:13;;;;;;;19.25;8.10;;;5.20;76.80;;;;;;5097873;28;20372;-61
2022/01/10 01:24:23;;;;;;;13.47;8.20;;;5.20;76.80;;;;;;5097851;28;20411;-61
2022/01/10 01:26:51;;;;;;;17.70;8.77;;;5.10;76.80;;;;;;5097755;28;20107;-61
2022/01/10 01:29:20;;;;;;;17.20;8.33;;;5.10;76.80;;;;;;5097211;28;20077;-61
2022/01/10 01:31:46;;;;;;;17.60;8.23;;;5.10;76.80;;;;;;5096876;28;20023;-61
2022/01/10 01:34:14;;;;;;;19.50;9.47;;;5.10;76.80;;;;;;5096563;28;20024;-61
2022/01/10 01:36:40;;;;;;;14.87;8.07;;;5.10;76.80;;;;;;5096798;28;20020;-61
2022/01/10 01:39:17;;;;;;;18.03;8.73;;;5.10;76.80;;;;;;5096519;28;20031;-61
2022/01/10 01:41:44;;;;;;;15.90;8.60;;;5.00;76.80;;;;;;5097055;28;20049;-61
2022/01/10 01:44:10;;;;;;;15.10;9.03;;;5.00;76.80;;;;;;5095538;28;20020;-60
2022/01/10 01:46:36;;;;;;;16.27;8.97;;;5.10;77.00;;;;;;5096610;28;20141;-61
2022/01/10 01:49:04;;;;;;;23.10;9.97;;;5.10;76.90;;;;;;5096152;28;20346;-61
2022/01/10 01:51:29;;;;;;;20.83;10.00;;;5.00;76.80;;;;;;5098057;28;20062;-60
2022/01/10 01:53:55;;;;;;;16.30;9.83;;;5.10;76.90;;;;;;5096529;28;20199;-60
2022/01/10 01:56:22;;;;;;;18.03;9.50;;;5.00;76.90;;;;;;5096937;28;20036;-61
2022/01/10 01:58:51;;;;;;;24.40;10.27;;;5.10;77.00;;;;;;5079431;28;20081;-61
2022/01/10 02:01:16;;;;;;;16.50;9.67;;;5.00;76.90;;;;;;5097981;28;20502;-61
2022/01/10 02:03:43;;;;;;;20.23;9.23;;;5.10;77.00;;;;;;5096126;28;20060;-60
2022/01/10 02:06:12;;;;;;;20.57;10.47;;;5.10;77.00;;;;;;5080178;28;20059;-60
2022/01/10 02:08:39;;;;;;;20.00;10.33;;;5.10;77.00;;;;;;5105672;28;20024;-60
2022/01/10 02:11:07;;;;;;;18.53;10.33;;;5.10;77.10;;;;;;5096501;28;20065;-60
2022/01/10 02:13:33;;;;;;;24.10;10.37;;;5.10;77.20;;;;;;5107914;28;20020;-61
2022/01/10 02:16:05;;;;;;;17.23;10.70;;;5.10;77.20;;;;;;5096054;28;20047;-60
2022/01/10 02:18:36;;;;;;;23.13;10.27;;;5.10;77.20;;;;;;5079645;28;20022;-61
2022/01/10 02:21:05;;;;;;;19.17;10.17;;;5.10;77.20;;;;;;5097218;28;20356;-61
2022/01/10 02:23:33;;;;;;;17.13;10.10;;;5.10;77.20;;;;;;5095526;28;20066;-61
2022/01/10 02:26:08;;;;;;;23.20;10.30;;;5.00;77.10;;;;;;5095927;28;20020;-61
2022/01/10 02:28:36;;;;;;;17.43;10.37;;;5.00;77.10;;;;;;5095456;28;20036;-60
2022/01/10 02:31:02;;;;;;;21.80;10.30;;;5.00;77.10;;;;;;5095358;28;20058;-61
2022/01/10 02:33:31;;;;;;;21.03;10.07;;;5.00;77.10;;;;;;5095804;28;20031;-61
2022/01/10 02:38:27;;;;;;;20.48;9.63;;;4.90;77.00;;;;;;5095641;28;20024;-60
2022/01/10 02:40:54;;;;;;;18.53;10.67;;;4.90;77.00;;;;;;5096500;28;20032;-61
2022/01/10 02:43:20;;;;;;;19.43;11.23;;;4.80;77.00;;;;;;5095949;28;20032;-61
2022/01/10 02:45:47;;;;;;;18.50;10.63;;;4.80;77.00;;;;;;5095740;28;20028;-60
2022/01/10 02:48:12;;;;;;;18.63;10.23;;;4.80;77.00;;;;;;5095174;28;20032;-60
2022/01/10 02:50:38;;;;;;;22.03;10.30;;;4.80;77.00;;;;;;5095651;28;20441;-60
2022/01/10 02:53:04;;;;;;;18.90;9.63;;;4.80;77.00;;;;;;5109269;28;20024;-61
2022/01/10 02:55:32;;;;;;;17.57;10.73;;;4.80;77.00;;;;;;5073787;28;20032;-61
2022/01/10 02:57:58;;;;;;;16.70;10.33;;;4.70;76.90;;;;;;5095248;28;20043;-60
2022/01/10 03:00:25;;;;;;;21.33;10.77;;;4.70;76.90;;;;;;5095248;28;20020;-60
2022/01/10 03:02:54;;;;;;;18.20;10.07;;;4.70;76.90;;;;;;5096284;28;20024;-61
2022/01/10 03:05:24;;;;;;;22.03;10.60;;;4.70;76.90;;;;;;5095120;28;20035;-61
2022/01/10 03:07:52;;;;;;;20.00;9.90;;;4.70;76.90;;;;;;5095172;28;20468;-60
2022/01/10 03:10:19;;;;;;;17.23;10.13;;;4.70;76.90;;;;;;5094910;28;20106;-60
2022/01/10 03:12:45;;;;;;;14.57;10.17;;;4.70;76.90;;;;;;5061451;28;20062;-60
2022/01/10 03:15:12;;;;;;;20.50;12.27;;;4.70;76.90;;;;;;5094778;28;20024;-60
2022/01/10 03:17:39;;;;;;;17.03;10.73;;;4.70;76.90;;;;;;5094357;28;20032;-60
2022/01/10 03:20:07;;;;;;;19.57;11.30;;;4.70;76.90;;;;;;5094633;28;20028;-60
2022/01/10 03:22:33;;;;;;;19.60;12.00;;;4.70;76.80;;;;;;5095897;28;20032;-61
2022/01/10 03:24:59;;;;;;;18.77;11.83;;;4.70;76.90;;;;;;5094798;28;20039;-60
2022/01/10 03:27:26;;;;;;;21.67;12.23;;;4.70;76.90;;;;;;5094305;28;20040;-61
2022/01/10 03:29:53;;;;;;;18.90;11.57;;;4.70;76.90;;;;;;5077526;28;20039;-60
2022/01/10 03:32:20;;;;;;;18.17;11.23;;;4.70;76.90;;;;;;5094578;28;20032;-60
2022/01/10 03:34:46;;;;;;;21.87;12.67;;;4.70;77.00;;;;;;5091196;28;20035;-60
2022/01/10 03:37:12;;;;;;;21.87;11.27;;;4.70;76.90;;;;;;5089417;28;20033;-60
2022/01/10 03:39:41;;;;;;;22.10;11.67;;;4.70;76.90;;;;;;5090610;28;20033;-61
2022/01/10 03:42:07;;;;;;;20.17;10.87;;;4.70;76.90;;;;;;5093638;28;20050;-61
2022/01/10 03:44:32;;;;;;;21.77;11.80;;;4.60;76.90;;;;;;5093966;28;20452;-61
2022/01/10 03:47:01;;;;;;;16.57;11.03;;;4.60;76.90;;;;;;5077137;28;20031;-61
2022/01/10 03:49:27;;;;;;;20.50;13.13;;;4.60;76.90;;;;;;5076889;28;20046;-61
2022/01/10 03:51:53;;;;;;;19.20;11.73;;;4.60;76.90;;;;;;5094096;28;20077;-60
2022/01/10 03:54:19;;;;;;;19.97;10.93;;;4.60;76.90;;;;;;5093647;28;20028;-61
2022/01/10 03:56:47;;;;;;;20.50;12.00;;;4.60;76.90;;;;;;5100308;28;20441;-61
2022/01/10 03:59:13;;;;;;;17.67;11.47;;;4.60;76.90;;;;;;5093553;28;20111;-61
2022/01/10 04:01:39;;;;;;;26.43;12.00;;;4.60;77.00;;;;;;5093433;28;20468;-60
2022/01/10 04:04:07;;;;;;;20.53;10.90;;;4.50;77.00;;;;;;5093555;28;20035;-61
2022/01/10 04:06:33;;;;;;;21.83;11.97;;;4.60;77.10;;;;;;5094809;28;20475;-61
2022/01/10 04:08:59;;;;;;;19.30;11.77;;;4.60;77.10;;;;;;5093305;28;20028;-60
2022/01/10 04:11:25;;;;;;;20.63;12.03;;;4.60;77.10;;;;;;5093668;28;20060;-61
2022/01/10 04:13:50;;;;;;;20.13;13.13;;;4.60;77.10;;;;;;5093293;28;20114;-60
2022/01/10 04:16:16;;;;;;;26.20;13.73;;;4.60;77.10;;;;;;5071153;28;20028;-61
2022/01/10 04:18:42;;;;;;;17.33;11.77;;;4.60;77.20;;;;;;5076609;28;20337;-61
2022/01/10 04:21:08;;;;;;;20.63;12.80;;;4.60;77.20;;;;;;5093231;28;20024;-61
2022/01/10 04:23:34;;;;;;;22.10;13.50;;;4.70;77.30;;;;;;5094374;28;20035;-61
2022/01/10 04:26:00;;;;;;;22.17;12.63;;;4.70;77.30;;;;;;5093194;28;20028;-60
2022/01/10 04:28:29;;;;;;;21.17;13.40;;;4.70;77.30;;;;;;5077008;28;20042;-61
2022/01/10 04:30:55;;;;;;;19.67;12.83;;;4.70;77.30;;;;;;5076463;28;20055;-61
2022/01/10 04:33:27;;;;;;;21.17;13.67;;;4.70;77.40;;;;;;5093193;28;20066;-61
2022/01/10 04:35:52;;;;;;;27.15;13.73;;;4.70;77.40;;;;;;5093231;28;20364;-61
2022/01/10 04:38:18;;;;;;;21.17;13.43;;;4.70;77.50;;;;;;5094584;28;20028;-61
2022/01/10 04:40:44;;;;;;;22.83;14.40;;;4.70;77.50;;;;;;5093133;28;20040;-61
2022/01/10 04:43:10;;;;;;;23.40;14.33;;;4.70;77.60;;;;;;5092079;28;20035;-61
2022/01/10 04:45:36;;;;;;;22.67;14.57;;;4.80;77.70;;;;;;5092845;28;20395;-60
2022/01/10 04:48:02;;;;;;;22.07;13.43;;;4.70;77.60;;;;;;5094277;28;20067;-60
2022/01/10 04:51:09;;;;;;;22.33;13.50;;;4.80;77.70;;;;;;5093219;28;20111;-61
2022/01/10 04:53:23;;;;;;;23.43;13.50;;;4.80;77.80;;;;;;5092649;28;20078;-61
2022/01/10 04:55:48;;;;;;;21.77;14.10;;;4.80;77.80;;;;;;5092746;28;20028;-60
2022/01/10 04:58:14;;;;;;;21.33;14.57;;;4.80;77.90;;;;;;5092990;28;20023;-60
2022/01/10 05:00:40;;;;;;;23.60;13.63;;;4.70;77.80;;;;;;5094184;28;20024;-60
2022/01/10 05:03:05;;;;;;;23.50;14.43;;;4.80;77.90;;;;;;5093238;28;20020;-60
2022/01/10 05:05:32;;;;;;;26.13;14.00;;;4.80;78.00;;;;;;5092874;28;20035;-61
2022/01/10 05:07:58;;;;;;;25.20;14.13;;;4.80;78.00;;;;;;5092869;28;20425;-61
2022/01/10 05:10:24;;;;;;;19.00;13.70;;;4.80;78.00;;;;;;5099506;28;20081;-60
2022/01/10 05:12:50;;;;;;;23.27;13.93;;;4.80;78.10;;;;;;5091906;28;20020;-60
2022/01/10 05:15:15;;;;;;;23.27;13.50;;;4.80;78.10;;;;;;5092967;28;20028;-61
2022/01/10 05:17:41;;;;;;;21.53;14.77;;;4.80;78.10;;;;;;5090826;28;20437;-61
2022/01/10 05:20:08;;;;;;;26.20;14.97;;;4.90;78.20;;;;;;5089223;28;20028;-61
2022/01/10 05:22:34;;;;;;;21.50;13.63;;;4.80;78.10;;;;;;5090554;28;20028;-61
2022/01/10 05:25:00;;;;;;;23.77;14.43;;;4.80;78.20;;;;;;5087610;28;20028;-60
2022/01/10 05:27:26;;;;;;;24.73;15.00;;;4.80;78.20;;;;;;5089887;28;20044;-60
2022/01/10 05:29:54;;;;;;;23.77;14.57;;;4.90;78.30;;;;;;5092202;28;20034;-60
2022/01/10 05:32:20;;;;;;;22.60;13.30;;;4.90;78.40;;;;;;5094160;28;20103;-61
2022/01/10 05:35:03;;;;;;;21.17;13.47;;;4.90;78.40;;;;;;5092669;28;20031;-60
2022/01/10 05:37:29;;;;;;;24.00;14.07;;;4.90;78.40;;;;;;5093899;28;20069;-60
2022/01/10 05:39:54;;;;;;;22.17;14.37;;;4.90;78.50;;;;;;5092669;28;20036;-61
2022/01/10 05:42:20;;;;;;;21.27;14.50;;;4.90;78.50;;;;;;5092404;28;20032;-61
2022/01/10 05:44:47;;;;;;;23.37;14.67;;;4.90;78.50;;;;;;5092882;28;20027;-60
2022/01/10 05:47:13;;;;;;;25.87;15.40;;;4.90;78.60;;;;;;5092307;28;20028;-61
2022/01/10 05:49:46;;;;;;;26.37;15.20;;;4.90;78.60;;;;;;5075372;28;20031;-60
2022/01/10 05:52:14;;;;;;;22.10;14.13;;;4.90;78.60;;;;;;5092540;28;20422;-61
2022/01/10 05:54:41;;;;;;;23.40;14.53;;;4.90;78.60;;;;;;5073167;28;20452;-60
2022/01/10 05:57:07;;;;;;;25.23;15.07;;;4.90;78.60;;;;;;5092261;28;20081;-61
2022/01/10 05:59:36;;;;;;;21.10;14.43;;;5.00;78.70;;;;;;5077424;28;20028;-60
2022/01/10 06:02:04;;;;;;;24.13;14.57;;;4.90;78.70;;;;;;5107438;28;20027;-61
2022/01/10 06:04:31;;;;;;;24.53;15.10;;;5.00;78.80;;;;;;5096003;28;20028;-60
2022/01/10 06:07:03;;;;;;;25.20;15.50;;;4.90;78.80;;;;;;5095795;28;20016;-60
2022/01/10 06:09:29;;;;;;;25.33;14.60;;;4.90;78.80;;;;;;5078968;28;20035;-62
2022/01/10 06:11:55;;;;;;;27.20;15.10;;;4.90;78.80;;;;;;5095306;28;20034;-61
2022/01/10 06:14:21;;;;;;;24.97;15.27;;;5.00;78.90;;;;;;5077107;28;20686;-60
2022/01/10 06:16:47;;;;;;;25.73;15.50;;;5.00;78.80;;;;;;5092815;28;20034;-61
2022/01/10 06:19:12;;;;;;;25.40;14.73;;;4.90;78.80;;;;;;5075025;28;20412;-61
2022/01/10 06:21:38;;;;;;;24.50;15.33;;;4.90;78.80;;;;;;5095336;28;20055;-61
2022/01/10 06:24:05;;;;;;;25.87;15.50;;;4.90;78.80;;;;;;5094859;28;20051;-62
2022/01/10 06:26:31;;;;;;;24.17;14.50;;;5.00;78.80;;;;;;5073071;28;20025;-62
2022/01/10 06:28:57;;;;;;;23.90;14.73;;;5.00;78.90;;;;;;5092115;28;20061;-62
2022/01/10 06:31:23;;;;;;;23.47;15.07;;;5.00;78.90;;;;;;5093038;28;20085;-61
2022/01/10 06:33:57;;;;;;;24.70;16.20;;;5.00;78.90;;;;;;5093050;28;20074;-61
2022/01/10 06:36:24;;;;;;;24.90;15.60;;;5.00;78.90;;;;;;5093837;28;20020;-61
2022/01/10 06:38:51;;;;;;;24.43;16.17;;;5.00;78.90;;;;;;5095447;28;20449;-61
2022/01/10 06:41:17;;;;;;;22.33;15.30;;;5.00;78.90;;;;;;5095224;28;20089;-61
2022/01/10 06:43:44;;;;;;;24.50;15.70;;;5.00;78.90;;;;;;5095938;28;20028;-61
2022/01/10 06:46:11;;;;;;;25.57;14.40;;;5.00;78.90;;;;;;5095564;28;20370;-61
2022/01/10 06:48:37;;;;;;;25.63;15.47;;;5.00;79.00;;;;;;5095245;28;20024;-60
2022/01/10 06:51:03;;;;;;;27.23;16.10;;;5.00;78.90;;;;;;5095622;28;20024;-60
2022/01/10 06:53:30;;;;;;;25.87;15.60;;;5.00;79.00;;;;;;5079017;28;20460;-60
2022/01/10 06:55:57;;;;;;;22.63;15.60;;;5.00;79.00;;;;;;5095621;28;20059;-60
2022/01/10 06:58:22;;;;;;;22.40;15.30;;;5.00;79.00;;;;;;5096113;28;20480;-60
2022/01/10 07:00:48;;;;;;;22.57;14.63;;;5.00;78.90;;;;;;5096130;28;20039;-60
2022/01/10 07:03:14;;;;;;;23.90;15.10;;;5.00;78.90;;;;;;5095635;28;20434;-60
2022/01/10 07:05:48;;;;;;;22.50;15.53;;;5.00;78.80;;;;;;5095309;28;20391;-60
2022/01/10 07:08:17;;;;;;;23.30;14.53;;;5.00;78.80;;;;;;5094865;28;20057;-60
2022/01/10 07:10:52;;;;;;;24.83;15.27;;;5.00;78.80;;;;;;5084522;28;20065;-60
2022/01/10 07:13:21;;;;;;;23.07;14.77;;;5.00;78.90;;;;;;5095348;28;20016;-61
2022/01/10 07:15:47;;;;;;;30.77;15.47;;;4.90;78.80;;;;;;5095205;28;20024;-60
2022/01/10 07:18:13;;;;;;;22.60;15.60;;;5.00;78.80;;;;;;5078203;28;20389;-61
2022/01/10 07:20:42;;;;;;;23.60;15.13;;;5.00;78.90;;;;;;5078741;28;20460;-62
2022/01/10 07:23:08;;;;;;;21.17;14.47;;;4.90;78.80;;;;;;5094161;28;20028;-60
2022/01/10 07:25:35;;;;;;;26.57;16.10;;;5.00;79.40;;;;;;5076897;28;20035;-61
2022/01/10 07:28:00;;;;;;;22.43;14.87;;;5.00;78.60;;;;;;5093562;28;20457;-64
2022/01/10 07:30:27;;;;;;;23.60;14.80;;;5.00;78.60;;;;;;5077182;28;20028;-64
2022/01/10 07:32:53;;;;;;;30.93;15.60;;;5.10;78.50;;;;;;5095124;28;20123;-64
2022/01/10 07:35:19;;;;;;;26.17;15.97;;;5.10;78.40;;;;;;5094856;28;20039;-64
2022/01/10 07:37:44;;;;;;;24.00;15.33;;;5.10;78.40;;;;;;5094546;28;20032;-65
2022/01/10 07:40:10;;;;;;;24.63;16.27;;;5.10;78.40;;;;;;5094869;28;20282;-65
2022/01/10 07:42:36;;;;;;;28.20;16.27;;;5.10;78.50;;;;;;5093708;28;20032;-65
2022/01/10 07:45:08;;;;;;;;;;;5.10;78.50;;;;;;5086866;28;20078;-64
2022/01/10 07:47:34;;;;;;;26.23;15.57;;;5.10;78.50;;;;;;5089048;28;19915;-64
2022/01/10 07:49:59;;;;;;;23.43;15.00;;;5.00;78.50;;;;;;5093702;28;20103;-65
2022/01/10 07:52:26;;;;;;;25.27;15.40;;;5.00;78.50;;;;;;5093723;28;20162;-64
2022/01/10 07:54:53;;;;;;;29.43;16.20;;;5.00;78.40;;;;;;5093887;28;20032;-65
2022/01/10 07:57:19;;;;;;;26.93;15.93;;;5.00;78.50;;;;;;5093287;28;20024;-65
2022/01/10 07:59:44;;;;;;;25.53;16.37;;;5.00;78.60;;;;;;5092594;28;20364;-64
2022/01/10 08:02:11;;;;;;;25.17;16.77;;;5.00;78.60;;;;;;5092106;28;20100;-64
2022/01/10 08:04:37;;;;;;;25.93;15.37;;;5.00;78.60;;;;;;5093608;28;20040;-61
2022/01/10 08:07:05;;;;;;;27.60;15.53;;;5.00;78.60;;;;;;5093170;28;20446;-61
2022/01/10 08:09:31;;;;;;;34.67;16.80;;;5.00;78.60;;;;;;5093411;28;20102;-61
2022/01/10 08:11:59;;;;;;;25.17;15.33;;;5.10;78.60;;;;;;5092931;28;20027;-61
2022/01/10 08:14:30;;;;;;;25.27;15.70;;;5.10;79.20;;;;;;5090420;28;20024;-61
2022/01/10 08:16:56;;;;;;;23.93;16.50;;;5.10;78.50;;;;;;5081902;28;20132;-61
2022/01/10 08:19:22;;;;;;;22.27;16.27;;;5.10;78.50;;;;;;5082764;28;20093;-61
2022/01/10 08:21:49;;;;;;;25.90;16.57;;;5.10;78.60;;;;;;5087652;28;20048;-61
2022/01/10 08:24:15;;;;;;;26.43;16.43;;;5.20;78.60;;;;;;5089856;28;20031;-61
2022/01/10 08:26:40;;;;;;;26.73;16.00;;;5.20;78.50;;;;;;5093194;28;20024;-61
2022/01/10 08:29:07;;;;;;;27.17;16.27;;;5.20;78.50;;;;;;5074788;28;20043;-61
2022/01/10 08:31:33;;;;;;;30.13;17.10;;;5.20;78.50;;;;;;5093084;28;20048;-61
2022/01/10 08:34:00;;;;;;;25.87;17.17;;;5.30;78.50;;;;;;5093013;28;20099;-60
2022/01/10 08:36:28;;;;;;;38.83;21.47;;;5.30;78.50;;;;;;5091959;28;20018;-61
2022/01/10 08:38:54;;;;;;;30.10;17.97;;;5.30;78.50;;;;;;5075071;28;20405;-61
2022/01/10 08:41:20;;;;;;;29.70;18.40;;;5.30;78.50;;;;;;5091973;28;20039;-61
2022/01/10 08:43:46;;;;;;;26.73;16.47;;;5.30;78.50;;;;;;5093059;28;20024;-62
2022/01/10 08:46:11;;;;;;;22.37;15.80;;;5.40;78.60;;;;;;5093389;28;20497;-61
2022/01/10 08:48:37;;;;;;;28.00;17.97;;;5.40;78.50;;;;;;5090666;28;20024;-61
2022/01/10 08:51:03;;;;;;;26.07;18.07;;;5.40;78.50;;;;;;5090970;28;20023;-61
2022/01/10 08:53:29;;;;;;;31.00;18.47;;;5.50;78.50;;;;;;5092376;28;20017;-61
2022/01/10 08:55:54;;;;;;;27.60;18.17;;;5.50;78.50;;;;;;5085605;28;20029;-60
2022/01/10 08:58:21;;;;;;;27.93;18.47;;;5.50;78.40;;;;;;5088629;28;20020;-61
2022/01/10 09:00:47;;;;;;;29.83;17.57;;;5.50;78.40;;;;;;5095016;28;20413;-61
2022/01/10 09:03:13;;;;;;;29.23;17.83;;;5.50;78.40;;;;;;5091065;28;20036;-61
2022/01/10 09:05:39;;;;;;;24.90;16.80;;;5.60;78.40;;;;;;5074907;28;20035;-61
2022/01/10 09:08:06;;;;;;;23.80;16.73;;;5.60;78.30;;;;;;5071473;28;20083;-61
2022/01/10 09:10:32;;;;;;;24.23;17.60;;;5.60;78.30;;;;;;5092700;28;20036;-61
2022/01/10 09:12:57;;;;;;;23.57;17.17;;;5.60;78.40;;;;;;5065434;28;20040;-61
2022/01/10 09:15:23;;;;;;;25.23;17.30;;;5.60;78.40;;;;;;5091512;28;20066;-61
2022/01/10 09:17:49;;;;;;;28.03;16.57;;;5.70;78.50;;;;;;5091905;28;20449;-61
2022/01/10 09:20:15;;;;;;;26.23;17.87;;;5.70;78.40;;;;;;5091238;28;20043;-61
2022/01/10 09:22:40;;;;;;;24.83;16.63;;;5.70;78.40;;;;;;5096673;28;20031;-62
2022/01/10 09:25:06;;;;;;;27.57;17.17;;;5.80;78.50;;;;;;5092783;28;20036;-61
2022/01/10 09:27:32;;;;;;;26.27;16.87;;;5.80;78.50;;;;;;5093561;28;20448;-61
2022/01/10 09:29:58;;;;;;;25.20;17.57;;;5.80;78.50;;;;;;5088755;28;20097;-62
2022/01/10 09:32:24;;;;;;;26.37;16.03;;;5.80;78.50;;;;;;5093094;28;20048;-61
2022/01/10 09:34:49;;;;;;;25.67;17.50;;;5.90;78.60;;;;;;5078311;28;20048;-62
2022/01/10 09:37:15;;;;;;;28.57;17.20;;;5.90;78.50;;;;;;5089664;28;20063;-62
2022/01/10 09:39:41;;;;;;;30.33;18.93;;;5.90;78.50;;;;;;5096800;28;20031;-61
2022/01/10 09:42:06;;;;;;;28.37;17.50;;;5.90;78.50;;;;;;5096655;28;20414;-61
2022/01/10 09:44:34;;;;;;;27.73;17.20;;;5.90;78.40;;;;;;5094085;28;20033;-61
2022/01/10 09:47:00;;;;;;;28.10;17.50;;;6.00;78.40;;;;;;5078797;28;20040;-61
2022/01/10 09:49:25;;;;;;;30.03;16.90;;;6.00;78.40;;;;;;5085846;28;20040;-60
2022/01/10 09:51:51;;;;;;;30.70;17.60;;;6.00;78.30;;;;;;5077041;28;20028;-63
2022/01/10 09:54:17;;;;;;;23.97;16.33;;;6.10;78.20;;;;;;5095898;28;20031;-63
2022/01/10 09:56:47;;;;;;;25.53;17.87;;;6.20;78.00;;;;;;5097770;28;20028;-63
2022/01/10 09:59:13;;;;;;;24.30;17.77;;;6.30;77.90;;;;;;5094910;28;20046;-62
2022/01/10 10:01:39;;;;;;;28.80;18.37;;;6.30;77.80;;;;;;5085784;28;20048;-61
2022/01/10 10:04:05;;;;;;;26.37;17.10;;;6.30;77.70;;;;;;5089260;28;20133;-62
2022/01/10 10:06:32;;;;;;;31.37;19.30;;;6.40;77.70;;;;;;5094821;28;20342;-62
2022/01/10 10:09:04;;;;;;;24.57;17.53;;;6.40;77.70;;;;;;5097336;28;20451;-61
2022/01/10 10:11:40;;;;;;;27.38;18.25;;;6.40;77.70;;;;;;5096026;28;20365;-62
2022/01/10 10:14:06;;;;;;;30.10;17.40;;;6.40;77.60;;;;;;5091340;28;20073;-62
2022/01/10 10:16:35;;;;;;;26.40;18.00;;;6.50;77.60;;;;;;5090318;28;20282;-62
2022/01/10 10:19:05;;;;;;;26.67;17.20;;;6.50;77.60;;;;;;5096969;28;20402;-61
2022/01/10 10:21:32;;;;;;;29.53;16.37;;;6.50;77.50;;;;;;5094426;28;20062;-63
2022/01/10 10:23:58;;;;;;;29.17;17.97;;;6.50;77.40;;;;;;5086148;28;20036;-62
2022/01/10 10:26:26;;;;;;;27.87;17.37;;;6.50;77.40;;;;;;5095189;28;20089;-62
2022/01/10 10:28:55;;;;;;;29.20;18.13;;;6.50;77.40;;;;;;5096697;28;20471;-61
2022/01/10 10:31:31;;;;;;;25.33;16.53;;;6.50;77.40;;;;;;5094015;28;20024;-62
2022/01/10 10:33:58;;;;;;;28.80;17.13;;;6.50;77.40;;;;;;5094955;28;20024;-62
2022/01/10 10:36:25;;;;;;;29.93;18.47;;;6.60;77.40;;;;;;5096313;28;20039;-61
2022/01/10 10:38:53;;;;;;;26.73;18.57;;;6.60;77.30;;;;;;5095814;28;20031;-62
2022/01/10 10:41:18;;;;;;;26.67;16.30;;;6.70;77.40;;;;;;5092395;28;20024;-62
2022/01/10 10:43:44;;;;;;;25.23;17.93;;;6.80;77.20;;;;;;5092338;28;20050;-62
2022/01/10 10:46:17;;;;;;;28.83;17.40;;;6.80;77.00;;;;;;5092069;28;20039;-62
2022/01/10 10:48:49;;;;;;;27.13;16.73;;;7.10;76.70;;;;;;5094552;28;20028;-61
2022/01/10 10:51:15;;;;;;;31.83;17.50;;;7.30;76.20;;;;;;5095082;28;20032;-61
2022/01/10 10:53:41;;;;;;;27.17;16.70;;;7.40;75.90;;;;;;5096136;28;20024;-61
2022/01/10 10:56:07;;;;;;;27.00;14.77;;;7.60;75.60;;;;;;5093693;28;20031;-61
2022/01/10 10:58:33;;;;;;;29.17;18.90;;;7.80;75.10;;;;;;5095779;28;20365;-61
2022/01/10 11:01:00;;;;;;;29.23;17.07;;;7.80;74.90;;;;;;5095937;28;20028;-61
2022/01/10 11:03:26;;;;;;;26.93;16.73;;;7.90;74.90;;;;;;5095956;28;20032;-61
2022/01/10 11:05:54;;;;;;;22.77;15.67;;;8.00;74.70;;;;;;5094674;28;20052;-61
2022/01/10 11:08:21;;;;;;;25.93;16.13;;;8.10;74.50;;;;;;5096516;28;20031;-61
2022/01/10 11:10:46;;;;;;;24.00;15.60;;;8.30;74.30;;;;;;5094525;28;20036;-61
2022/01/10 11:13:13;;;;;;;24.03;14.60;;;8.40;74.00;;;;;;5098917;28;20116;-61
2022/01/10 11:15:38;;;;;;;25.83;14.57;;;8.40;73.80;;;;;;5090190;28;20051;-61
2022/01/10 11:18:06;;;;;;;24.57;15.23;;;8.50;73.60;;;;;;5087784;28;20063;-61
2022/01/10 11:20:44;;;;;;;24.90;14.53;;;8.60;73.60;;;;;;5085070;28;20032;-63
2022/01/10 11:23:10;;;;;;;25.10;14.50;;;8.70;73.50;;;;;;5099467;28;20064;-62
2022/01/10 11:25:42;;;;;;;17.97;12.80;;;8.70;73.40;;;;;;5109814;28;20055;-61
2022/01/10 11:28:23;;;;;;;;;;;8.80;73.30;;;;;;5109024;28;20054;-61
2022/01/10 11:30:54;;;;;;;22.47;13.80;;;8.70;73.40;;;;;;5097313;28;19972;-62
2022/01/10 11:33:26;;;;;;;21.90;14.37;;;8.70;73.40;;;;;;5114127;28;20398;-62
2022/01/10 11:36:01;;;;;;;23.20;13.20;;;8.60;73.40;;;;;;5116405;27;20034;-62
2022/01/10 11:38:41;;;;;;;22.73;14.13;;;8.50;73.40;;;;;;5102704;28;20332;-61
2022/01/10 11:41:21;;;;;;;24.67;15.00;;;8.50;73.50;;;;;;5075247;28;20109;-61
2022/01/10 11:43:54;;;;;;;24.13;14.37;;;8.40;74.30;;;;;;5080938;28;20119;-61
2022/01/10 11:46:22;;;;;;;22.10;14.40;;;8.40;73.70;;;;;;5096634;28;20055;-61
2022/01/10 11:48:58;;;;;;;26.57;15.47;;;8.30;73.90;;;;;;5093847;28;20040;-61
2022/01/10 11:51:28;;;;;;;24.83;13.57;;;8.30;74.00;;;;;;5111893;28;20037;-61
2022/01/10 11:54:01;;;;;;;26.23;14.97;;;8.30;74.10;;;;;;5114844;28;20081;-62
2022/01/10 11:56:30;;;;;;;21.90;14.33;;;8.20;74.10;;;;;;5115509;28;20032;-61
2022/01/10 11:59:16;;;;;;;27.47;15.83;;;8.20;74.10;;;;;;5090701;28;20016;-61
2022/01/10 12:01:46;;;;;;;29.00;16.03;;;8.20;74.20;;;;;;5079714;28;20450;-61
2022/01/10 12:04:12;;;;;;;26.97;14.83;;;8.10;74.20;;;;;;5092926;28;20356;-61
2022/01/10 12:06:37;;;;;;;26.30;15.33;;;8.10;74.30;;;;;;5094426;28;20032;-62
2022/01/10 12:09:04;;;;;;;24.40;15.73;;;8.10;74.40;;;;;;5095263;28;20032;-61
2022/01/10 12:11:30;;;;;;;23.73;14.63;;;8.00;74.40;;;;;;5095211;28;20119;-61
2022/01/10 12:13:58;;;;;;;26.70;16.27;;;8.00;74.30;;;;;;5111275;28;20040;-61
2022/01/10 12:16:23;;;;;;;24.53;15.60;;;8.00;74.40;;;;;;5104936;28;20333;-61
2022/01/10 12:18:49;;;;;;;29.10;16.93;;;8.00;74.60;;;;;;5086811;28;20020;-62
2022/01/10 12:21:16;;;;;;;24.87;14.40;;;7.90;74.60;;;;;;5108090;28;20062;-61
2022/01/10 12:23:42;;;;;;;20.70;13.23;;;7.90;74.70;;;;;;5105856;28;20024;-61
2022/01/10 12:26:08;;;;;;;24.20;13.77;;;7.90;74.70;;;;;;5094885;28;20516;-61
2022/01/10 12:28:34;;;;;;;24.93;13.97;;;7.90;74.70;;;;;;5093782;28;20139;-62
2022/01/10 12:31:02;;;;;;;25.70;15.53;;;8.00;74.70;;;;;;5098332;28;20050;-61
2022/01/10 12:33:32;;;;;;;21.50;14.00;;;8.00;74.70;;;;;;5112984;28;20298;-61
2022/01/10 12:36:01;;;;;;;25.97;15.63;;;8.00;74.70;;;;;;5115320;28;20027;-61
2022/01/10 12:38:27;;;;;;;29.67;15.77;;;8.00;74.70;;;;;;5101870;28;20039;-61
2022/01/10 12:40:53;;;;;;;19.80;12.10;;;8.00;74.70;;;;;;5114775;28;20023;-61
2022/01/10 12:43:18;;;;;;;25.43;14.93;;;8.00;74.60;;;;;;5110560;28;20031;-61
2022/01/10 12:45:46;;;;;;;20.47;13.17;;;8.00;74.70;;;;;;5095961;28;20093;-61